Time;durP1;ratioP1;P1;durP2;ratioP2;P2;SDS_P1;SDS_P2;PMS_P1;PMS_P2;Temp;Humidity;BMP_temperature;BMP_pressure;BME280_temperature;BME280_humidity;BME280_pressure;Samples;Min_cycle;Max_cycle;Signal;HPM_P1;HPM_P2
2022/05/30 00:00:47;;;;;;;2.90;2.70;;;15.00;58.70;;;;;;5055668;28;20220;-80
2022/05/30 00:03:13;;;;;;;3.70;3.27;;;15.10;58.90;;;;;;5072461;28;20181;-80
2022/05/30 00:05:46;;;;;;;3.13;2.83;;;15.10;58.60;;;;;;5066546;28;20191;-80
2022/05/30 00:08:12;;;;;;;3.10;2.90;;;15.20;58.30;;;;;;5075654;28;20153;-79
2022/05/30 00:10:37;;;;;;;3.40;3.10;;;15.20;58.50;;;;;;5075241;28;20211;-80
2022/05/30 00:13:03;;;;;;;2.93;2.73;;;15.20;58.50;;;;;;5077798;28;20528;-79
2022/05/30 00:15:29;;;;;;;3.53;3.23;;;15.10;57.10;;;;;;5069242;28;20680;-79
2022/05/30 00:17:56;;;;;;;3.17;2.90;;;15.00;57.00;;;;;;5071278;28;20682;-80
2022/05/30 00:20:23;;;;;;;3.43;3.13;;;15.00;57.50;;;;;;5074945;28;20230;-80
2022/05/30 00:22:49;;;;;;;3.40;3.10;;;15.10;57.10;;;;;;5071454;28;20195;-80
2022/05/30 00:25:15;;;;;;;3.03;2.83;;;15.00;57.80;;;;;;5074882;28;20183;-79
2022/05/30 00:27:40;;;;;;;3.40;2.80;;;15.00;58.20;;;;;;5071055;28;20188;-79
2022/05/30 00:30:07;;;;;;;3.17;2.93;;;14.80;59.10;;;;;;5070205;28;20208;-81
2022/05/30 00:32:34;;;;;;;3.10;2.87;;;14.80;59.30;;;;;;5076782;28;20200;-80
2022/05/30 00:35:00;;;;;;;2.97;2.70;;;14.70;59.50;;;;;;5074754;28;20179;-79
2022/05/30 00:37:27;;;;;;;3.27;2.97;;;14.60;59.80;;;;;;5072451;28;20780;-79
2022/05/30 00:39:53;;;;;;;2.93;2.73;;;14.40;60.60;;;;;;5077777;28;20214;-79
2022/05/30 00:42:23;;;;;;;2.80;2.60;;;14.20;61.00;;;;;;5077017;28;20527;-79
2022/05/30 00:44:49;;;;;;;3.00;2.80;;;14.20;61.80;;;;;;5075436;28;20259;-80
2022/05/30 00:47:16;;;;;;;2.80;2.60;;;14.20;61.70;;;;;;5024844;28;20267;-80
2022/05/30 00:49:45;;;;;;;3.10;2.70;;;14.20;61.70;;;;;;5078616;28;20218;-79
2022/05/30 00:52:40;;;;;;;3.30;3.00;;;14.30;61.80;;;;;;5077627;28;20186;-80
2022/05/30 00:55:16;;;;;;;3.03;2.83;;;14.20;61.80;;;;;;5063761;28;20256;-80
2022/05/30 00:57:43;;;;;;;3.33;2.97;;;14.20;61.80;;;;;;5070791;28;20198;-79
2022/05/30 01:00:16;;;;;;;3.30;3.00;;;14.20;61.80;;;;;;5064156;28;20577;-79
2022/05/30 01:02:42;;;;;;;3.97;2.90;;;14.00;62.60;;;;;;5073178;28;20681;-77
2022/05/30 01:08:02;;;;;;;3.10;2.90;;;13.80;63.90;;;;;;5059557;28;20186;-79
2022/05/30 01:10:28;;;;;;;2.73;2.53;;;13.70;64.10;;;;;;5076796;28;20684;-79
2022/05/30 01:12:57;;;;;;;3.00;2.70;;;13.90;63.20;;;;;;5074125;28;20192;-80
2022/05/30 01:15:30;;;;;;;3.03;2.83;;;13.90;63.00;;;;;;5078200;28;20189;-79
2022/05/30 01:18:10;;;;;;;2.97;2.77;;;13.90;63.10;;;;;;5054323;28;20207;-79
2022/05/30 01:21:15;;;;;;;3.43;3.13;;;13.80;63.70;;;;;;5078486;28;20228;-79
2022/05/30 01:24:15;;;;;;;3.13;2.93;;;13.80;63.50;;;;;;5077288;28;20711;-79
2022/05/30 01:26:59;;;;;;;2.93;2.60;;;13.80;63.50;;;;;;5067769;28;20682;-78
2022/05/30 01:29:34;;;;;;;2.80;2.60;;;13.70;63.40;;;;;;5072447;28;20185;-79
2022/05/30 01:32:00;;;;;;;2.93;2.53;;;13.80;63.00;;;;;;5066704;28;20180;-81
2022/05/30 01:34:27;;;;;;;3.87;2.87;;;13.70;63.00;;;;;;5074372;28;20191;-82
2022/05/30 01:36:54;;;;;;;2.77;2.57;;;13.80;63.00;;;;;;5070252;28;20668;-79
2022/05/30 01:39:20;;;;;;;2.97;2.77;;;13.70;63.90;;;;;;5078057;28;20217;-81
2022/05/30 01:41:46;;;;;;;2.90;2.70;;;13.60;64.00;;;;;;5073476;28;20396;-79
2022/05/30 01:44:12;;;;;;;3.07;2.87;;;13.50;64.30;;;;;;5073776;28;20243;-79
2022/05/30 01:46:38;;;;;;;3.50;2.90;;;13.30;65.00;;;;;;5075673;28;20185;-79
2022/05/30 01:49:04;;;;;;;3.30;3.00;;;13.10;65.70;;;;;;5049331;28;20741;-79
2022/05/30 01:51:30;;;;;;;3.00;2.80;;;12.90;67.00;;;;;;5072405;28;20231;-79
2022/05/30 01:53:55;;;;;;;3.10;2.90;;;12.80;67.70;;;;;;5077684;28;20187;-79
2022/05/30 01:56:21;;;;;;;3.03;2.80;;;12.90;67.50;;;;;;5056848;28;20743;-79
2022/05/30 01:58:47;;;;;;;2.60;2.40;;;12.90;67.00;;;;;;5065036;28;20208;-80
2022/05/30 02:01:18;;;;;;;3.67;2.80;;;13.00;66.50;;;;;;5066153;28;20200;-79
2022/05/30 02:03:48;;;;;;;3.13;2.83;;;13.10;66.20;;;;;;5067787;28;20187;-79
2022/05/30 02:06:15;;;;;;;4.53;2.50;;;13.00;65.80;;;;;;5062946;28;20218;-79
2022/05/30 02:08:41;;;;;;;3.13;2.90;;;13.10;66.20;;;;;;5070027;28;20176;-80
2022/05/30 02:11:10;;;;;;;4.40;2.87;;;13.20;65.30;;;;;;5063567;28;20204;-80
2022/05/30 02:13:37;;;;;;;3.13;2.93;;;13.10;65.30;;;;;;5046162;28;20184;-79
2022/05/30 02:18:51;;;;;;;3.70;2.93;;;12.90;65.90;;;;;;5061257;28;20231;-80
2022/05/30 02:21:17;;;;;;;3.13;2.67;;;12.90;66.30;;;;;;5068363;28;20686;-80
2022/05/30 02:23:43;;;;;;;2.73;2.53;;;12.90;66.60;;;;;;5047678;28;20410;-79
2022/05/30 02:26:10;;;;;;;2.90;2.70;;;12.80;66.80;;;;;;5067249;28;20562;-79
2022/05/30 02:28:36;;;;;;;3.03;2.83;;;12.80;66.50;;;;;;5064547;28;20187;-81
2022/05/30 02:31:02;;;;;;;3.43;2.70;;;12.90;66.60;;;;;;5069400;28;20590;-81
2022/05/30 02:38:55;;;;;;;2.90;2.70;;;12.90;65.90;;;;;;5063613;28;20252;-78
2022/05/30 02:41:21;;;;;;;2.87;2.67;;;12.80;66.50;;;;;;5067143;28;20275;-79
2022/05/30 02:43:47;;;;;;;2.90;2.70;;;12.80;66.70;;;;;;5068520;28;20194;-79
2022/05/30 02:46:13;;;;;;;2.80;2.50;;;12.80;66.40;;;;;;5059106;28;20189;-79
2022/05/30 02:48:39;;;;;;;2.60;2.50;;;12.80;66.40;;;;;;5048523;28;20218;-79
2022/05/30 02:51:04;;;;;;;2.70;2.50;;;12.80;66.50;;;;;;5078727;28;20216;-79
2022/05/30 02:53:30;;;;;;;4.37;2.67;;;12.70;65.80;;;;;;5067329;28;20839;-78
2022/05/30 02:55:57;;;;;;;3.10;2.90;;;12.70;66.20;;;;;;5070897;28;20195;-79
2022/05/30 02:58:22;;;;;;;3.00;2.70;;;12.70;66.60;;;;;;5072631;28;20204;-80
2022/05/30 03:00:48;;;;;;;2.90;2.70;;;12.70;66.40;;;;;;5071670;28;20263;-80
2022/05/30 03:03:13;;;;;;;2.63;2.43;;;12.70;66.40;;;;;;5077558;28;20233;-80
2022/05/30 03:05:39;;;;;;;2.57;2.37;;;12.60;66.00;;;;;;5067335;28;20184;-79
2022/05/30 03:08:07;;;;;;;2.90;2.60;;;12.60;65.70;;;;;;5069049;28;20191;-80
2022/05/30 03:10:33;;;;;;;3.13;2.93;;;12.60;65.70;;;;;;5069360;28;20645;-82
2022/05/30 03:12:59;;;;;;;3.20;3.00;;;12.60;66.00;;;;;;5075273;28;20683;-79
2022/05/30 03:15:25;;;;;;;3.67;3.33;;;12.60;66.20;;;;;;5075862;28;20198;-79
2022/05/30 03:17:51;;;;;;;3.40;3.10;;;12.60;65.80;;;;;;5074657;28;20188;-79
2022/05/30 03:20:18;;;;;;;3.40;3.10;;;12.60;66.40;;;;;;5074683;28;20215;-79
2022/05/30 03:22:44;;;;;;;3.17;2.93;;;12.60;66.20;;;;;;5066687;28;20279;-79
2022/05/30 03:25:10;;;;;;;4.30;2.90;;;12.60;65.80;;;;;;5066347;28;20246;-80
2022/05/30 03:27:36;;;;;;;2.63;2.43;;;12.50;66.40;;;;;;5069917;28;20451;-79
2022/05/30 03:30:03;;;;;;;3.20;2.63;;;12.50;66.30;;;;;;5070565;28;20211;-79
2022/05/30 03:32:28;;;;;;;3.20;2.90;;;12.50;66.70;;;;;;5066422;28;20194;-80
2022/05/30 03:34:54;;;;;;;2.80;2.60;;;12.50;66.30;;;;;;5062633;28;20584;-79
2022/05/30 03:37:20;;;;;;;2.90;2.70;;;12.30;66.80;;;;;;5063468;28;20216;-80
2022/05/30 03:39:45;;;;;;;3.10;2.80;;;12.30;66.40;;;;;;5063405;28;20228;-79
2022/05/30 03:42:14;;;;;;;3.10;2.80;;;12.30;66.30;;;;;;5066868;28;20184;-79
2022/05/30 03:44:41;;;;;;;3.10;2.90;;;12.30;66.30;;;;;;5067365;28;20197;-81
2022/05/30 03:47:08;;;;;;;3.03;2.83;;;12.40;66.50;;;;;;5066049;28;20227;-79
2022/05/30 03:49:33;;;;;;;3.80;2.70;;;12.30;66.40;;;;;;5057420;28;20194;-79
2022/05/30 03:51:59;;;;;;;2.93;2.73;;;12.30;66.20;;;;;;5047838;28;20277;-79
2022/05/30 03:54:26;;;;;;;3.00;2.80;;;12.40;66.10;;;;;;5030109;28;20212;-79
2022/05/30 03:56:51;;;;;;;3.30;3.00;;;12.40;66.20;;;;;;5072295;28;20192;-79
2022/05/30 03:59:17;;;;;;;3.30;2.90;;;12.30;66.30;;;;;;5070629;28;20386;-79
2022/05/30 04:01:43;;;;;;;2.83;2.63;;;12.30;66.50;;;;;;5075191;28;20628;-79
2022/05/30 04:04:10;;;;;;;3.10;2.90;;;12.40;67.00;;;;;;5052770;28;20186;-79
2022/05/30 04:06:36;;;;;;;3.40;3.10;;;12.40;67.00;;;;;;5068011;28;20198;-79
2022/05/30 04:09:01;;;;;;;3.00;2.80;;;12.20;67.60;;;;;;5071202;28;20193;-79
2022/05/30 04:11:28;;;;;;;2.60;2.40;;;12.10;68.30;;;;;;5061740;28;20707;-79
2022/05/30 04:13:54;;;;;;;3.50;3.20;;;12.00;68.40;;;;;;5068916;28;20255;-78
2022/05/30 04:16:19;;;;;;;3.00;2.80;;;12.10;69.40;;;;;;5069102;28;20221;-80
2022/05/30 04:18:45;;;;;;;3.30;3.00;;;12.10;68.00;;;;;;5069878;28;20581;-80
2022/05/30 04:21:12;;;;;;;3.10;2.90;;;12.20;68.00;;;;;;5069916;28;20230;-79
2022/05/30 04:23:40;;;;;;;3.07;2.87;;;12.20;68.10;;;;;;5070654;28;20262;-79
2022/05/30 04:26:07;;;;;;;6.33;3.10;;;12.30;68.00;;;;;;5074149;28;20216;-79
2022/05/30 04:28:33;;;;;;;3.57;3.27;;;12.20;68.30;;;;;;5070567;28;20202;-79
2022/05/30 04:30:59;;;;;;;4.03;2.93;;;12.10;69.40;;;;;;5068493;28;20270;-78
2022/05/30 04:33:25;;;;;;;5.80;2.97;;;12.00;70.10;;;;;;5042949;28;20687;-78
2022/05/30 04:35:51;;;;;;;4.00;3.50;;;12.00;70.30;;;;;;5068806;28;20194;-78
2022/05/30 04:38:16;;;;;;;3.83;3.30;;;12.00;70.50;;;;;;5070407;28;20197;-79
2022/05/30 04:40:42;;;;;;;3.40;3.10;;;12.10;69.80;;;;;;5056457;28;20210;-78
2022/05/30 04:43:08;;;;;;;3.33;3.03;;;12.00;69.70;;;;;;5063045;28;20270;-78
2022/05/30 04:45:33;;;;;;;3.77;3.10;;;12.00;71.00;;;;;;5063075;28;20244;-80
2022/05/30 04:48:01;;;;;;;3.40;3.10;;;12.00;71.30;;;;;;5070343;28;20206;-78
2022/05/30 04:50:26;;;;;;;3.43;3.23;;;12.10;71.40;;;;;;5065537;28;20203;-78
2022/05/30 04:52:52;;;;;;;3.37;3.17;;;12.10;71.20;;;;;;5061751;28;20702;-79
2022/05/30 04:55:18;;;;;;;3.50;3.20;;;12.10;71.50;;;;;;5072647;28;20191;-79
2022/05/30 04:57:47;;;;;;;3.50;3.20;;;12.10;71.90;;;;;;5073872;28;20199;-78
2022/05/30 05:00:16;;;;;;;3.73;3.43;;;12.30;71.70;;;;;;5070842;28;20209;-78
2022/05/30 05:02:41;;;;;;;3.70;3.40;;;12.40;71.10;;;;;;5067525;28;20191;-79
2022/05/30 05:05:08;;;;;;;4.33;3.37;;;12.50;71.20;;;;;;5065876;28;20191;-78
2022/05/30 05:07:45;;;;;;;4.20;3.37;;;12.50;71.40;;;;;;5067206;28;20187;-79
2022/05/30 05:10:32;;;;;;;4.07;3.77;;;12.60;71.10;;;;;;5065292;28;20616;-78
2022/05/30 05:12:59;;;;;;;4.47;4.07;;;12.60;71.20;;;;;;5052965;28;20202;-79
2022/05/30 05:15:24;;;;;;;4.50;4.10;;;12.50;72.10;;;;;;5066830;28;20198;-79
2022/05/30 05:17:50;;;;;;;4.80;4.40;;;12.40;73.00;;;;;;5065042;28;20290;-78
2022/05/30 05:20:16;;;;;;;4.10;3.80;;;12.30;73.60;;;;;;5073428;28;20222;-79
2022/05/30 05:22:41;;;;;;;8.87;4.73;;;12.40;74.00;;;;;;5064098;28;20191;-79
2022/05/30 05:25:08;;;;;;;5.23;4.73;;;12.30;74.40;;;;;;5069813;28;20552;-78
2022/05/30 05:27:33;;;;;;;5.27;4.77;;;12.10;75.80;;;;;;5075578;28;20545;-78
2022/05/30 05:29:59;;;;;;;5.30;4.80;;;12.00;76.90;;;;;;5075785;28;20233;-79
2022/05/30 05:32:25;;;;;;;5.53;4.67;;;12.00;77.60;;;;;;5069513;28;20198;-78
2022/05/30 05:34:50;;;;;;;5.20;4.80;;;12.00;77.50;;;;;;5050602;28;20199;-79
2022/05/30 05:37:17;;;;;;;5.07;4.67;;;12.00;77.50;;;;;;5064694;28;20199;-78
2022/05/30 05:39:43;;;;;;;5.00;4.60;;;12.00;77.10;;;;;;5050850;28;20218;-78
2022/05/30 05:42:09;;;;;;;4.70;4.30;;;12.10;77.30;;;;;;5065666;28;20188;-78
2022/05/30 05:44:34;;;;;;;4.60;4.17;;;12.20;76.80;;;;;;5070408;28;20197;-78
2022/05/30 05:47:00;;;;;;;4.43;4.03;;;12.20;76.10;;;;;;5075296;28;20194;-78
2022/05/30 05:49:26;;;;;;;4.30;4.00;;;12.20;76.40;;;;;;5073324;28;20186;-79
2022/05/30 05:51:54;;;;;;;4.90;4.43;;;12.20;76.00;;;;;;5046150;28;20193;-80
2022/05/30 05:54:23;;;;;;;5.03;4.53;;;12.30;75.90;;;;;;5068478;28;20181;-79
2022/05/30 05:56:49;;;;;;;5.00;4.57;;;12.30;76.30;;;;;;5075528;28;20196;-79
2022/05/30 05:59:15;;;;;;;4.80;4.40;;;12.30;75.40;;;;;;5073491;28;20244;-78
2022/05/30 06:01:41;;;;;;;5.03;4.63;;;12.20;75.20;;;;;;5077351;28;20192;-78
2022/05/30 06:04:09;;;;;;;4.80;4.37;;;12.20;74.70;;;;;;5077770;28;20185;-78
2022/05/30 06:06:35;;;;;;;4.40;4.10;;;12.30;75.60;;;;;;5076534;28;20181;-78
2022/05/30 06:09:03;;;;;;;4.67;4.27;;;12.20;75.60;;;;;;5076146;28;20236;-78
2022/05/30 06:11:30;;;;;;;4.73;4.33;;;12.20;75.90;;;;;;5074928;28;20206;-78
2022/05/30 06:13:57;;;;;;;4.40;4.00;;;12.30;75.60;;;;;;5072550;28;20781;-78
2022/05/30 06:16:28;;;;;;;4.33;3.90;;;12.30;75.20;;;;;;5073275;28;20210;-79
2022/05/30 06:18:56;;;;;;;4.57;4.17;;;12.40;74.60;;;;;;5067004;28;20680;-78
2022/05/30 06:21:24;;;;;;;4.50;4.10;;;12.40;73.50;;;;;;5054531;28;20224;-78
2022/05/30 06:23:51;;;;;;;4.27;3.87;;;12.40;73.40;;;;;;5075176;28;20264;-78
2022/05/30 06:26:17;;;;;;;3.90;3.60;;;12.30;73.90;;;;;;5073683;28;20656;-79
2022/05/30 06:28:44;;;;;;;4.77;3.93;;;12.30;73.80;;;;;;5074673;28;20222;-80
2022/05/30 06:31:20;;;;;;;4.17;3.83;;;12.40;72.40;;;;;;5072167;28;20210;-78
2022/05/30 06:33:46;;;;;;;5.80;4.10;;;12.50;72.60;;;;;;5074288;28;20590;-78
2022/05/30 06:36:14;;;;;;;4.63;4.27;;;12.50;71.90;;;;;;5053165;28;20190;-79
2022/05/30 06:38:40;;;;;;;4.97;3.60;;;12.60;71.90;;;;;;5052722;28;20229;-79
2022/05/30 06:41:10;;;;;;;4.87;3.83;;;12.60;71.70;;;;;;5062331;28;20736;-79
2022/05/30 06:43:35;;;;;;;3.83;3.50;;;12.80;71.40;;;;;;5061386;28;20207;-79
2022/05/30 06:46:02;;;;;;;4.23;3.83;;;12.90;71.00;;;;;;5076336;28;20194;-79
2022/05/30 06:48:27;;;;;;;11.13;10.40;;;13.00;70.10;;;;;;5071954;28;20182;-79
2022/05/30 06:50:53;;;;;;;3.40;3.10;;;13.20;70.50;;;;;;5066298;28;20207;-78
2022/05/30 06:53:19;;;;;;;4.63;3.50;;;13.30;69.30;;;;;;5043757;28;20279;-79
2022/05/30 06:55:49;;;;;;;3.53;3.23;;;13.30;67.70;;;;;;5068788;28;20256;-79
2022/05/30 06:58:18;;;;;;;3.90;3.50;;;13.30;67.80;;;;;;5070542;28;20183;-79
2022/05/30 07:00:45;;;;;;;4.27;3.27;;;13.20;68.20;;;;;;5048893;28;20303;-79
2022/05/30 07:03:12;;;;;;;3.73;3.40;;;13.30;68.40;;;;;;5069684;28;20819;-79
2022/05/30 07:05:42;;;;;;;4.73;3.73;;;13.50;66.90;;;;;;5048954;28;20191;-78
2022/05/30 07:08:08;;;;;;;3.47;3.20;;;13.50;66.90;;;;;;5067930;28;20197;-79
2022/05/30 07:10:35;;;;;;;3.30;2.90;;;13.70;64.90;;;;;;5070006;28;20218;-78
2022/05/30 07:13:02;;;;;;;4.03;3.57;;;13.80;63.50;;;;;;5069576;28;20260;-80
2022/05/30 07:15:28;;;;;;;4.03;3.00;;;14.00;63.80;;;;;;5069589;28;20657;-79
2022/05/30 07:17:54;;;;;;;3.50;3.20;;;14.00;64.20;;;;;;5068535;28;20198;-78
2022/05/30 07:20:20;;;;;;;3.33;3.00;;;14.00;62.50;;;;;;5062770;28;20219;-79
2022/05/30 07:22:45;;;;;;;4.20;3.37;;;13.90;63.50;;;;;;5061586;28;20599;-78
2022/05/30 07:25:11;;;;;;;3.40;3.10;;;13.90;64.30;;;;;;5063776;28;20191;-79
2022/05/30 07:27:37;;;;;;;3.50;3.20;;;14.00;62.70;;;;;;5065627;28;20277;-79
2022/05/30 07:30:05;;;;;;;3.40;3.10;;;14.00;62.90;;;;;;5067970;28;20261;-78
2022/05/30 07:32:32;;;;;;;3.37;3.10;;;14.00;63.10;;;;;;5063238;28;20193;-79
2022/05/30 07:34:59;;;;;;;3.80;3.40;;;14.10;62.50;;;;;;5076370;28;20195;-78
2022/05/30 07:37:24;;;;;;;3.20;2.90;;;14.30;60.80;;;;;;5070556;28;20342;-78
2022/05/30 07:39:50;;;;;;;3.27;2.93;;;14.20;62.10;;;;;;5069042;28;20748;-79
2022/05/30 07:42:16;;;;;;;4.80;3.23;;;14.20;62.70;;;;;;5073015;28;20213;-78
2022/05/30 07:44:41;;;;;;;4.80;3.20;;;14.30;61.20;;;;;;5072891;28;20187;-79
2022/05/30 07:47:07;;;;;;;3.50;3.20;;;14.30;61.70;;;;;;5068809;28;20271;-78
2022/05/30 07:49:33;;;;;;;3.67;3.27;;;14.30;61.70;;;;;;5063179;28;20198;-79
2022/05/30 07:51:59;;;;;;;3.43;3.13;;;14.40;62.30;;;;;;5068010;28;20208;-80
2022/05/30 07:54:24;;;;;;;3.50;3.20;;;14.60;60.00;;;;;;5064369;28;20201;-78
2022/05/30 07:56:50;;;;;;;4.10;3.70;;;14.40;60.40;;;;;;5063687;28;20283;-79
2022/05/30 07:59:16;;;;;;;3.53;3.23;;;14.50;61.10;;;;;;5043310;28;20203;-78
2022/05/30 08:01:42;;;;;;;3.67;2.90;;;14.80;59.60;;;;;;5059731;28;20212;-79
2022/05/30 08:04:12;;;;;;;4.60;3.00;;;15.00;58.40;;;;;;5065768;28;20202;-79
2022/05/30 08:06:38;;;;;;;3.50;2.77;;;15.20;57.80;;;;;;5064173;28;20186;-79
2022/05/30 08:09:04;;;;;;;4.77;3.00;;;15.20;57.90;;;;;;5071166;28;20188;-80
2022/05/30 08:11:30;;;;;;;3.83;3.50;;;15.50;57.60;;;;;;5053559;28;20323;-79
2022/05/30 08:13:57;;;;;;;3.30;3.00;;;15.70;55.80;;;;;;5071591;28;20693;-80
2022/05/30 08:16:25;;;;;;;3.13;2.83;;;15.60;56.20;;;;;;5054113;28;20176;-79
2022/05/30 08:18:51;;;;;;;3.40;3.10;;;15.60;56.70;;;;;;5068416;28;20219;-79
2022/05/30 08:21:17;;;;;;;4.07;2.90;;;15.70;57.00;;;;;;5071868;28;20293;-79
2022/05/30 08:23:43;;;;;;;3.00;2.70;;;15.80;57.20;;;;;;5072132;28;20203;-79
2022/05/30 08:26:10;;;;;;;4.80;3.17;;;16.20;55.90;;;;;;5070001;28;20198;-79
2022/05/30 08:28:36;;;;;;;5.10;3.00;;;16.30;54.20;;;;;;5072591;28;20187;-80
2022/05/30 08:31:02;;;;;;;5.23;2.80;;;16.50;52.90;;;;;;5056318;28;20227;-80
2022/05/30 08:33:29;;;;;;;3.03;2.70;;;16.50;53.90;;;;;;5073852;28;20207;-80
2022/05/30 08:36:07;;;;;;;4.80;3.20;;;16.60;52.60;;;;;;5074980;28;20207;-80
2022/05/30 08:38:36;;;;;;;3.30;2.90;;;16.50;52.10;;;;;;5072407;28;20784;-80
2022/05/30 08:43:58;;;;;;;3.47;2.83;;;16.20;52.60;;;;;;5065364;28;20558;-79
2022/05/30 08:46:47;;;;;;;4.37;2.70;;;16.40;52.20;;;;;;5071035;28;20618;-80
2022/05/30 08:49:22;;;;;;;3.10;2.90;;;16.50;52.90;;;;;;5071811;28;20217;-80
2022/05/30 08:52:25;;;;;;;3.47;3.00;;;16.90;52.00;;;;;;5073230;28;20210;-80
2022/05/30 08:55:23;;;;;;;3.50;3.20;;;16.90;51.50;;;;;;5075852;28;20195;-81
2022/05/30 08:58:02;;;;;;;2.97;2.77;;;17.10;50.30;;;;;;5070198;28;20531;-79
2022/05/30 09:00:47;;;;;;;6.30;2.83;;;17.10;49.10;;;;;;5065896;28;20218;-81
2022/05/30 09:03:23;;;;;;;3.10;2.80;;;17.40;49.70;;;;;;5071525;28;20180;-80
2022/05/30 09:05:53;;;;;;;3.97;2.73;;;17.50;47.20;;;;;;5074216;28;20188;-79
2022/05/30 09:11:27;;;;;;;3.77;2.90;;;18.00;46.10;;;;;;5078953;28;20215;-79
2022/05/30 09:13:57;;;;;;;3.40;2.87;;;17.90;46.10;;;;;;5070768;28;20196;-80
2022/05/30 09:16:39;;;;;;;4.03;2.80;;;17.90;43.10;;;;;;5074011;28;20234;-82
2022/05/30 09:19:08;;;;;;;3.13;2.80;;;17.90;44.10;;;;;;5065796;28;20215;-80
2022/05/30 09:21:36;;;;;;;4.67;2.80;;;17.80;44.50;;;;;;5075131;28;20217;-80
2022/05/30 09:24:02;;;;;;;3.80;2.80;;;18.20;44.10;;;;;;5060964;28;20260;-80
2022/05/30 09:26:33;;;;;;;2.60;2.40;;;18.20;44.80;;;;;;5070880;28;20810;-81
2022/05/30 09:29:29;;;;;;;2.90;2.40;;;18.50;44.40;;;;;;5075807;28;20285;-81
2022/05/30 09:31:55;;;;;;;5.60;2.77;;;18.90;43.10;;;;;;5072866;28;20289;-80
2022/05/30 09:34:28;;;;;;;3.60;2.87;;;18.70;42.40;;;;;;5071543;28;20228;-80
2022/05/30 09:36:54;;;;;;;5.70;2.90;;;18.70;43.30;;;;;;5078003;28;20192;-80
2022/05/30 09:39:20;;;;;;;2.97;2.67;;;18.30;42.60;;;;;;5077689;28;20224;-80
2022/05/30 09:41:57;;;;;;;4.23;3.27;;;17.90;43.50;;;;;;5071489;28;20294;-81
2022/05/30 09:44:26;;;;;;;3.00;2.70;;;17.60;44.10;;;;;;5067242;28;20736;-80
2022/05/30 09:47:18;;;;;;;3.05;2.75;;;17.70;44.70;;;;;;5068986;28;20191;-79
2022/05/30 09:49:50;;;;;;;3.78;3.08;;;18.20;44.00;;;;;;5082807;28;20197;-80
2022/05/30 09:52:27;;;;;;;2.70;2.50;;;18.50;41.30;;;;;;5069898;28;20194;-80
2022/05/30 09:54:54;;;;;;;3.20;2.58;;;18.60;40.80;;;;;;5064522;28;20194;-81
2022/05/30 09:57:22;;;;;;;4.85;2.70;;;18.90;41.30;;;;;;5078380;28;20211;-80
2022/05/30 09:59:51;;;;;;;2.60;2.50;;;19.30;41.90;;;;;;5077121;28;20215;-82
2022/05/30 10:02:22;;;;;;;3.80;3.00;;;19.70;40.90;;;;;;5050572;28;20226;-80
2022/05/30 10:05:01;;;;;;;3.65;2.60;;;19.40;39.30;;;;;;5069083;28;20187;-80
2022/05/30 10:07:27;;;;;;;3.53;2.50;;;19.70;39.60;;;;;;5073914;28;20184;-80
2022/05/30 10:10:00;;;;;;;3.25;2.90;;;20.00;38.40;;;;;;5071820;28;20230;-81
2022/05/30 10:12:42;;;;;;;3.17;2.70;;;19.90;39.60;;;;;;5075086;28;20223;-80
2022/05/30 10:15:29;;;;;;;4.95;2.85;;;20.30;38.30;;;;;;5072599;28;20655;-79
2022/05/30 10:17:57;;;;;;;4.80;2.95;;;20.50;38.40;;;;;;5065405;28;20195;-79
2022/05/30 10:21:02;;;;;;;4.00;3.08;;;20.60;38.00;;;;;;5064885;28;20218;-79
2022/05/30 10:30:17;;;;;;;3.47;2.80;;;20.60;35.80;;;;;;5068161;28;20683;-78
2022/05/30 10:33:05;;;;;;;4.65;2.75;;;19.60;35.30;;;;;;5059741;28;20270;-79
2022/05/30 10:35:37;;;;;;;3.25;2.47;;;19.60;35.70;;;;;;5070881;28;20175;-79
2022/05/30 10:38:31;;;;;;;2.92;2.67;;;19.40;37.10;;;;;;5073009;28;20183;-82
2022/05/30 10:41:26;;;;;;;4.22;3.30;;;19.40;36.30;;;;;;5070030;28;20230;-82
2022/05/30 10:44:08;;;;;;;3.15;2.55;;;19.40;35.70;;;;;;5032939;28;20203;-79
2022/05/30 10:46:57;;;;;;;2.72;2.53;;;20.10;35.20;;;;;;5065631;28;20218;-79
2022/05/30 10:49:26;;;;;;;4.70;2.97;;;20.50;36.30;;;;;;5071943;28;20514;-80
2022/05/30 10:52:21;;;;;;;3.92;2.90;;;20.70;35.50;;;;;;5069637;28;20192;-79
2022/05/30 10:55:04;;;;;;;5.75;3.17;;;20.90;35.60;;;;;;5055362;28;20238;-80
2022/05/30 10:57:50;;;;;;;4.15;2.50;;;21.00;34.40;;;;;;5066585;28;20217;-79
2022/05/30 11:00:18;;;;;;;2.90;2.58;;;21.30;34.20;;;;;;5066581;28;20223;-79
2022/05/30 11:03:03;;;;;;;7.70;3.45;;;21.50;34.20;;;;;;5068946;28;20180;-79
2022/05/30 11:06:05;;;;;;;3.05;2.50;;;21.50;34.10;;;;;;5067455;28;20199;-80
2022/05/30 11:08:34;;;;;;;3.17;2.88;;;21.90;32.70;;;;;;5070157;28;20186;-80
2022/05/30 11:11:18;;;;;;;3.72;2.65;;;22.40;31.40;;;;;;5063372;28;20699;-80
2022/05/30 11:14:15;;;;;;;4.95;2.95;;;22.80;31.00;;;;;;5067179;28;20687;-80
2022/05/30 11:16:53;;;;;;;3.65;2.75;;;22.40;30.20;;;;;;5060224;28;20179;-79
2022/05/30 11:19:54;;;;;;;2.38;2.10;;;22.30;29.80;;;;;;5066297;28;20249;-79
2022/05/30 11:22:37;;;;;;;2.72;2.53;;;22.30;29.80;;;;;;5066830;28;20280;-80
2022/05/30 11:25:05;;;;;;;3.90;2.70;;;22.20;29.10;;;;;;5069077;28;20271;-79
2022/05/30 11:27:31;;;;;;;2.58;2.38;;;22.50;29.20;;;;;;5071183;28;20177;-80
2022/05/30 11:30:11;;;;;;;4.25;2.72;;;22.90;29.70;;;;;;5074797;28;20232;-80
2022/05/30 11:32:46;;;;;;;3.80;2.58;;;22.90;30.00;;;;;;5073901;28;20206;-80
2022/05/30 11:35:34;;;;;;;4.15;2.50;;;23.30;29.00;;;;;;5064157;28;20180;-80
2022/05/30 11:38:20;;;;;;;2.33;2.17;;;23.10;29.10;;;;;;5070528;28;20278;-80
2022/05/30 11:41:05;;;;;;;2.58;2.38;;;23.20;30.10;;;;;;5062893;28;20280;-80
2022/05/30 11:43:48;;;;;;;2.72;2.53;;;23.30;29.10;;;;;;5064278;28;20554;-80
2022/05/30 11:46:24;;;;;;;3.00;2.53;;;23.40;29.20;;;;;;5049564;28;20258;-80
2022/05/30 11:49:17;;;;;;;2.50;2.30;;;23.20;28.60;;;;;;5070748;28;20188;-80
2022/05/30 11:51:54;;;;;;;3.75;2.80;;;23.30;28.80;;;;;;5061439;28;20698;-80
2022/05/30 11:54:38;;;;;;;3.05;2.30;;;23.60;28.90;;;;;;5068783;28;20201;-80
2022/05/30 11:57:31;;;;;;;3.78;2.38;;;23.70;28.40;;;;;;5066832;28;20190;-80
2022/05/30 12:00:03;;;;;;;3.15;2.70;;;22.90;29.10;;;;;;5061205;28;20301;-81
2022/05/30 12:02:59;;;;;;;4.47;2.58;;;23.10;29.00;;;;;;5066254;28;20218;-79
2022/05/30 12:05:44;;;;;;;3.50;2.38;;;24.00;27.30;;;;;;5054866;28;20841;-81
2022/05/30 12:08:36;;;;;;;3.30;2.80;;;24.50;27.10;;;;;;5067209;28;20219;-80
2022/05/30 12:11:22;;;;;;;2.90;2.70;;;25.00;27.10;;;;;;5067846;28;20713;-80
2022/05/30 12:14:15;;;;;;;3.17;2.88;;;25.20;27.20;;;;;;5070426;28;20188;-82
2022/05/30 12:16:50;;;;;;;2.80;2.60;;;25.20;26.40;;;;;;5066591;28;20182;-80
2022/05/30 12:24:51;;;;;;;3.00;2.70;;;24.90;26.70;;;;;;5068260;28;20268;-80
2022/05/30 12:27:28;;;;;;;3.60;2.90;;;25.20;25.20;;;;;;5073103;28;20184;-80
2022/05/30 12:29:55;;;;;;;3.90;2.63;;;25.10;25.80;;;;;;5077294;28;20207;-80
2022/05/30 12:32:21;;;;;;;2.90;2.70;;;25.80;25.10;;;;;;5077021;28;20192;-80
2022/05/30 12:35:21;;;;;;;4.88;2.90;;;26.00;24.90;;;;;;5077792;28;20222;-80
2022/05/30 12:38:08;;;;;;;2.90;2.70;;;25.00;26.60;;;;;;5081303;28;20185;-81
2022/05/30 12:40:41;;;;;;;3.75;2.90;;;25.10;25.80;;;;;;5082028;28;20215;-81
2022/05/30 12:43:23;;;;;;;6.55;2.53;;;25.60;25.20;;;;;;5077106;28;20182;-81
2022/05/30 12:45:55;;;;;;;2.88;2.65;;;25.50;25.50;;;;;;5074319;28;20178;-81
2022/05/30 12:48:34;;;;;;;2.55;2.38;;;25.30;25.60;;;;;;5074253;28;20237;-83
2022/05/30 12:51:19;;;;;;;2.92;2.50;;;25.10;25.10;;;;;;5075794;28;20205;-80
2022/05/30 12:54:01;;;;;;;2.55;2.35;;;24.80;25.60;;;;;;5074484;28;20187;-80
2022/05/30 12:56:39;;;;;;;2.75;2.55;;;25.00;24.90;;;;;;5074746;28;20225;-82
2022/05/30 12:59:24;;;;;;;4.85;2.60;;;24.80;25.50;;;;;;5080656;28;20199;-80
2022/05/30 13:01:57;;;;;;;2.75;2.55;;;24.60;25.10;;;;;;5082489;28;20231;-80
2022/05/30 13:04:29;;;;;;;2.47;2.28;;;24.90;25.40;;;;;;5065360;28;20270;-82
2022/05/30 13:06:58;;;;;;;2.67;2.47;;;24.90;24.20;;;;;;5080276;28;20176;-80
2022/05/30 13:09:47;;;;;;;2.40;2.20;;;24.60;23.80;;;;;;5081929;28;20214;-82
2022/05/30 13:12:17;;;;;;;3.53;2.50;;;23.90;24.10;;;;;;5080934;28;20184;-81
2022/05/30 13:14:48;;;;;;;4.18;2.63;;;24.10;24.60;;;;;;5080354;28;20662;-81
2022/05/30 13:17:30;;;;;;;3.20;2.47;;;24.80;24.80;;;;;;5082583;28;20245;-81
2022/05/30 13:19:58;;;;;;;4.45;2.70;;;25.50;24.90;;;;;;5078765;28;20238;-80
2022/05/30 13:22:40;;;;;;;2.45;2.25;;;25.50;23.90;;;;;;5081150;28;20229;-80
2022/05/30 13:25:13;;;;;;;2.65;2.45;;;25.80;24.10;;;;;;5078909;28;20306;-81
2022/05/30 13:27:39;;;;;;;3.45;2.78;;;25.80;23.70;;;;;;5074682;28;20179;-80
2022/05/30 13:30:13;;;;;;;3.10;2.80;;;26.10;24.00;;;;;;5073310;28;20286;-80
2022/05/30 13:32:39;;;;;;;2.88;2.65;;;25.90;23.10;;;;;;5078446;28;20215;-79
2022/05/30 13:35:10;;;;;;;3.10;2.85;;;26.20;23.10;;;;;;5079062;28;20180;-80
2022/05/30 13:37:40;;;;;;;2.63;2.42;;;26.10;23.30;;;;;;5075652;28;20542;-80